• Join FlightAware (Why Join?)
  • Login
  • US Flag 
05:03PM EDT


 

Airport Tracker/Info


-or-


 

Live Flight TrackerFlight Track Log ✈ UAL6002 ✈ 24-Apr-2013 ✈ KICT - KORD

Flight Track Log - Related Links

Times and Time Zones

All times are in EDT time to prevent confusion due to time zone crossing. See the UAL6002 flight status page for this flight to view local times or setup timezone preferences in your user account.

Time Position Orientation Groundspeed Altitude Reporting Facility
EDT Latitude Longitude Course Direction KTS MPH feet Rate Location/Type
08:01PM 37.6297 -97.4481 215° Southwest 157 181 2,000  Level Kansas City Center
08:02PM 37.6047 -97.4703 215° Southwest 175 201 3,400 1,560 Climbing Kansas City Center
08:03PM 37.5989 -97.5256 262° West 218 251 4,700 1,680 Climbing Kansas City Center
08:04PM 37.6561 -97.5644 332° Northwest 240 276 6,900 2,340 Climbing Kansas City Center
08:05PM 37.7319 -97.5189 25° Northeast 252 290 9,600 2,160 Climbing Kansas City Center
08:06PM 37.8047 -97.4964 14° North 265 305 11,300 1,440 Climbing Kansas City Center
08:07PM 37.8836 -97.4678 16° North 290 334 12,600 1,140 Climbing Kansas City Center
08:08PM 37.9706 -97.4372 15° North 320 368 13,700 960 Climbing Kansas City Center
08:09PM 38.0614 -97.4042 16° North 339 390 14,600 960 Climbing Kansas City Center
08:10PM 38.1497 -97.3397 30° Northeast 365 420 15,700 1,140 Climbing Kansas City Center
08:11PM 38.2586 -97.2619 29° Northeast 374 430 16,900 960 Climbing Kansas City Center
08:12PM 38.3503 -97.1961 29° Northeast 378 435 17,800 840 Climbing Kansas City Center
08:13PM 38.4406 -97.1217 33° Northeast 388 447 18,700 840 Climbing Kansas City Center
08:14PM 38.4911 -96.9861 64° Northeast 421 484 19,600 840 Climbing Kansas City Center
08:15PM 38.5417 -96.8475 65° Northeast 428 493 20,500 960 Climbing Kansas City Center
08:16PM 38.6017 -96.6833 65° Northeast 437 503 21,700 960 Climbing Kansas City Center
08:17PM 38.6514 -96.5456 65° Northeast 445 512 22,600 960 Climbing Kansas City Center
08:18PM 38.7019 -96.4067 65° Northeast 449 517 23,700 1,140 Climbing Kansas City Center
08:19PM 38.7597 -96.2408 66° East 456 525 25,000 1,140 Climbing Kansas City Center
08:20PM 38.8108 -96.1011 65° Northeast 455 524 26,100 1,140 Climbing Kansas City Center
08:21PM 38.8706 -95.9350 65° Northeast 458 527 27,400 1,140 Climbing Kansas City Center
08:22PM 38.9203 -95.7906 66° East 462 532 28,500 1,140 Climbing Kansas City Center
08:23PM 38.9800 -95.6217 65° Northeast 465 535 29,800 1,140 Climbing Kansas City Center
08:24PM 39.0303 -95.4783 66° East 462 532 30,900 1,080 Climbing Kansas City Center
08:25PM 39.0886 -95.3144 65° Northeast 464 534 32,100 1,020 Climbing Kansas City Center
08:26PM 39.1436 -95.1497 67° East 469 540 33,000 420 Climbing Kansas City Center
08:27PM 39.1975 -94.9936 66° East 490 564 33,000  Level Kansas City Center
08:28PM 39.2514 -94.8350 66° East 504 580 33,000  Level Kansas City Center
08:29PM 39.3231 -94.6450 64° Northeast 524 603 33,000 420 Level Kansas City Center
08:31PM 39.3900 -94.4822 62° Northeast 536 617 33,900 960 Climbing Kansas City Center
08:32PM 39.4642 -94.2989 62° Northeast 519 597 35,000 480 Climbing Kansas City Center
08:33PM 39.5286 -94.1403 62° Northeast 522 601 35,000  Level Kansas City Center
08:34PM 39.6050 -93.9494 62° Northeast 532 612 35,000  Level Kansas City Center
08:35PM 39.6711 -93.7842 62° Northeast 539 620 35,000  Level Kansas City Center
08:36PM 39.7322 -93.6269 63° Northeast 543 625 35,000  Level Kansas City Center
08:37PM 39.8158 -93.4244 62° Northeast 529 609 35,000  Level Kansas City Center
08:38PM 39.8822 -93.2456 64° Northeast 534 615 35,000  Level Kansas City Center
08:39PM 39.9497 -93.0736 63° Northeast 544 626 35,000  Level Kansas City Center
08:40PM 40.0164 -92.9006 63° Northeast 544 626 35,000  Level Kansas City Center
08:41PM 40.0942 -92.6981 63° Northeast 541 623 35,000  Level Kansas City Center
08:42PM 40.1583 -92.5322 63° Northeast 536 617 35,000  Level Kansas City Center
08:43PM 40.2256 -92.3447 65° Northeast 538 619 35,000  Level Kansas City Center
08:44PM 40.2856 -92.1769 65° Northeast 541 623 35,000 -240 Level Kansas City Center
08:45PM 40.3469 -92.0044 65° Northeast 532 612 34,500 -1,020 Descending Kansas City Center
08:46PM 40.4203 -91.7964 65° Northeast 529 609 33,000 -780 Descending Kansas City Center
08:47PM 40.4794 -91.6233 66° East 525 604 33,000  Level Kansas City Center
08:48PM 40.5269 -91.4831 66° East 527 606 33,000  Level Chicago Center
08:49PM 40.5931 -91.2894 66° East 528 608 33,000  Level Chicago Center
08:50PM 40.6519 -91.1103 67° East 532 612 33,000  Level Chicago Center
08:51PM 40.7153 -90.9314 65° Northeast 536 617 33,000  Level Chicago Center
08:52PM 40.7769 -90.7519 66° East 537 618 33,000  Level Chicago Center
08:53PM 40.8361 -90.5733 66° East 531 611 33,000  Level Chicago Center
08:54PM 40.8961 -90.3928 66° East 534 615 33,000 -300 Level Chicago Center
08:55PM 40.9681 -90.1736 66° East 532 612 32,500 -1,500 Descending Chicago Center
08:56PM 41.0272 -89.9950 66° East 530 610 29,900 -2,580 Descending Chicago Center
08:57PM 41.0825 -89.8267 66° East 497 572 27,200 -2,520 Descending Chicago Center
08:58PM 41.1358 -89.6644 66° East 479 551 24,700 -1,980 Descending Chicago Center
08:59PM 41.1911 -89.5114 64° Northeast 461 531 23,200 -1,920 Descending Chicago Center
09:00PM 41.2519 -89.3644 61° Northeast 453 521 20,800 -2,160 Descending Chicago Center
09:01PM 41.3111 -89.2172 62° Northeast 451 519 18,700 -2,100 Descending Chicago Center
09:02PM 41.3711 -89.0606 63° Northeast 424 488 16,500 -2,160 Descending Chicago Center
09:03PM 41.4258 -88.9261 61° Northeast 414 476 14,300 -2,220 Descending Chicago Center
09:04PM 41.4772 -88.7983 62° Northeast 396 456 12,000 -1,620 Descending Chicago Center
09:05PM 41.5247 -88.6756 63° Northeast 377 434 11,000 -540 Descending Chicago Center
09:06PM 41.5831 -88.5289 62° Northeast 371 427 10,900 -540 Descending Chicago Center
09:07PM 41.6378 -88.4150 57° Northeast 364 419 10,000 -480 Descending Chicago Center
09:08PM 41.6981 -88.3128 52° Northeast 350 403 10,000  Level Chicago Center
09:09PM 41.7594 -88.2086 52° Northeast 351 404 10,000 -300 Level Chicago Center
09:11PM 41.8122 -88.1167 52° Northeast 307 353 9,500 -900 Descending Chicago Center
09:12PM 41.8608 -88.0311 53° Northeast 290 334 8,200 -1,320 Descending Chicago Center
09:12PM 41.8833 -87.9333 73° East 285 328 7,200 -720 Descending Chicago TRACON
09:13PM 41.8833 -87.8500 90° East 225 259 7,000 -240 Descending Chicago TRACON
09:14PM 41.8833 -87.7667 90° East 203 234 6,800 -900 Descending Chicago TRACON
09:15PM 41.8833 -87.7000 90° East 206 237 5,300 -1,440 Descending Chicago TRACON
09:16PM 41.8833 -87.6167 90° East 202 232 4,000 -660 Descending Chicago TRACON
09:17PM 41.9167 -87.6167 360° North 179 206 4,000  Level Chicago TRACON
09:18PM 41.9500 -87.6667 312° West 165 190 4,100 -360 Climbing Chicago TRACON
09:19PM 41.9667 -87.7167 294° West 158 182 3,300 -900 Descending Chicago TRACON
09:20PM 41.9667 -87.7667 270° West 147 169 2,300 -900 Descending Chicago TRACON
09:21PM 41.9667 -87.8167 270° West 122 140 1,600 -660 Descending Chicago TRACON
09:22PM 41.9667 -87.8667 270° West 129 148 1,000 -600 Descending Chicago TRACON